Webcam & Weather

This webcam image will automatically refresh every 15 seconds.


METAR and TAF for EGLL Heathrow (12 Nautical Miles East of White Waltham)

Available data for EGLL from the past hour
LONDON/HEATHROW
Metar
EGLL 250120Z AUTO 21004KT 9999 NCD 16/10 Q1026 NOSIG

01:20 UTC

Wind: 210° 4kt

Visibility: 9999 m

Sky:

Temp: 16 deg C / 60.8 deg F

Dewpoint: 10 deg C / 50 deg F

Pressure: 1026 hPa

TAF
TAF EGLL 242251Z 2500/2606 23004KT CAVOK BECMG 2517/2520 03010KT

Play 24 hour timelapse | Play 30 day timelapse

Comments are closed.